Time;durP1;ratioP1;P1;durP2;ratioP2;P2;SDS_P1;SDS_P2;PMS_P1;PMS_P2;Temp;Humidity;BMP_temperature;BMP_pressure;BME280_temperature;BME280_humidity;BME280_pressure;Samples;Min_cycle;Max_cycle;Signal;HPM_P1;HPM_P2
2024/02/08 00:00:56;;;;;;;7.00;6.30;;;7.50;99.90;;;;;;5074602;28;20440;-54
2024/02/08 00:03:23;;;;;;;8.70;7.50;;;7.60;99.90;;;;;;5074695;28;20447;-55
2024/02/08 00:05:49;;;;;;;11.87;8.03;;;7.60;99.90;;;;;;5074363;28;20489;-54
2024/02/08 00:08:16;;;;;;;9.60;8.60;;;7.60;99.90;;;;;;5074474;28;20450;-54
2024/02/08 00:10:44;;;;;;;11.10;9.00;;;7.60;99.90;;;;;;5074507;28;20454;-55
2024/02/08 00:13:12;;;;;;;10.17;9.17;;;7.60;99.90;;;;;;5075478;28;20461;-54
2024/02/08 00:15:39;;;;;;;9.87;8.93;;;7.60;99.90;;;;;;5070189;28;20446;-54
2024/02/08 00:18:07;;;;;;;13.67;10.13;;;7.60;99.90;;;;;;5056736;28;20448;-54
2024/02/08 00:20:34;;;;;;;10.50;9.00;;;7.60;99.90;;;;;;5055388;28;20481;-54
2024/02/08 00:23:00;;;;;;;11.70;10.17;;;7.60;99.90;;;;;;5054922;28;20438;-54
2024/02/08 00:25:27;;;;;;;11.03;9.50;;;7.60;99.90;;;;;;5055252;28;20576;-54
2024/02/08 00:27:56;;;;;;;9.57;8.57;;;7.60;99.90;;;;;;5054978;28;20536;-55
2024/02/08 00:30:22;;;;;;;12.40;9.27;;;7.50;99.90;;;;;;5054632;28;20442;-54
2024/02/08 00:32:49;;;;;;;12.00;10.60;;;7.60;99.90;;;;;;5054624;28;20525;-54
2024/02/08 00:35:17;;;;;;;11.50;10.20;;;7.60;99.90;;;;;;5054118;28;20445;-55
2024/02/08 00:37:47;;;;;;;10.90;8.77;;;7.60;99.90;;;;;;5054425;28;20458;-55
2024/02/08 00:40:15;;;;;;;10.97;9.33;;;7.60;99.90;;;;;;5053995;28;20959;-54
2024/02/08 00:42:42;;;;;;;10.97;8.47;;;7.60;99.90;;;;;;5054043;28;20947;-55
2024/02/08 00:45:11;;;;;;;12.47;11.27;;;7.60;99.90;;;;;;5053986;28;20446;-55
2024/02/08 00:47:41;;;;;;;12.20;10.80;;;7.60;99.90;;;;;;5054016;28;20473;-55
2024/02/08 00:50:09;;;;;;;11.73;10.50;;;7.60;99.90;;;;;;5054047;28;20425;-54
2024/02/08 00:52:35;;;;;;;12.20;10.93;;;7.60;99.90;;;;;;5053760;28;20559;-55
2024/02/08 00:55:02;;;;;;;14.73;10.83;;;7.60;99.90;;;;;;5053169;28;20815;-55
2024/02/08 00:57:32;;;;;;;13.93;11.53;;;7.60;99.90;;;;;;5053184;28;20816;-55
2024/02/08 00:59:59;;;;;;;14.03;11.30;;;7.60;99.90;;;;;;5053137;28;21009;-54
2024/02/08 01:02:28;;;;;;;14.07;11.77;;;7.60;99.90;;;;;;5053635;28;20442;-55
2024/02/08 01:04:55;;;;;;;14.70;13.20;;;7.60;99.90;;;;;;5053945;28;20549;-56
2024/02/08 01:07:21;;;;;;;13.57;11.60;;;7.60;99.90;;;;;;5053384;28;20486;-54
2024/02/08 01:09:48;;;;;;;12.83;11.47;;;7.60;99.90;;;;;;5053534;28;20472;-55
2024/02/08 01:12:16;;;;;;;13.10;11.70;;;7.60;99.90;;;;;;5053693;28;20800;-55
2024/02/08 01:14:43;;;;;;;14.57;12.80;;;7.60;99.90;;;;;;5053400;28;20533;-55
2024/02/08 01:17:10;;;;;;;16.90;13.87;;;7.60;99.90;;;;;;5053362;28;20460;-55
2024/02/08 01:19:38;;;;;;;16.53;14.60;;;7.60;99.90;;;;;;5053949;28;20442;-54
2024/02/08 01:22:05;;;;;;;16.73;14.90;;;7.60;99.90;;;;;;5053680;28;20476;-55
2024/02/08 01:24:32;;;;;;;16.00;13.47;;;7.60;99.90;;;;;;5053414;28;20533;-55
2024/02/08 01:26:59;;;;;;;16.23;13.03;;;7.60;99.90;;;;;;5053332;28;20516;-54
2024/02/08 01:29:26;;;;;;;17.30;14.60;;;7.70;99.90;;;;;;5053485;28;20456;-55
2024/02/08 01:31:53;;;;;;;15.30;12.80;;;7.60;99.90;;;;;;5053392;28;20453;-55
2024/02/08 01:34:23;;;;;;;16.33;14.30;;;7.60;99.90;;;;;;5053478;28;20488;-55
2024/02/08 01:36:53;;;;;;;18.30;15.07;;;7.60;99.90;;;;;;5053079;28;20461;-55
2024/02/08 01:39:22;;;;;;;18.63;15.33;;;7.70;99.90;;;;;;5053308;28;20449;-55
2024/02/08 01:41:49;;;;;;;21.60;17.17;;;7.60;99.90;;;;;;5053437;28;20452;-55
2024/02/08 01:44:16;;;;;;;19.77;16.03;;;7.70;99.90;;;;;;5053405;28;20441;-55
2024/02/08 01:46:43;;;;;;;21.63;16.70;;;7.60;99.90;;;;;;5053169;28;20499;-55
2024/02/08 01:49:15;;;;;;;19.20;16.53;;;7.60;99.90;;;;;;5053777;28;20537;-55
2024/02/08 01:51:43;;;;;;;20.03;16.20;;;7.60;99.90;;;;;;5053476;28;20456;-55
2024/02/08 01:54:13;;;;;;;21.07;16.40;;;7.60;99.90;;;;;;5053103;28;20461;-55
2024/02/08 01:56:41;;;;;;;24.40;17.57;;;7.60;99.90;;;;;;5053172;28;20837;-54
2024/02/08 01:59:10;;;;;;;20.10;14.70;;;7.60;99.90;;;;;;5053391;28;20442;-55
2024/02/08 02:01:37;;;;;;;21.77;17.03;;;7.60;99.90;;;;;;5053171;28;20531;-55
2024/02/08 02:04:07;;;;;;;22.17;18.27;;;7.60;99.90;;;;;;5053208;28;20819;-55
2024/02/08 02:06:35;;;;;;;23.27;18.40;;;7.60;99.90;;;;;;5054844;28;20508;-54
2024/02/08 02:09:02;;;;;;;24.30;18.87;;;7.60;99.90;;;;;;5057351;28;20446;-55
2024/02/08 02:11:37;;;;;;;23.53;19.70;;;7.60;99.90;;;;;;5057367;28;20484;-54
2024/02/08 02:14:06;;;;;;;25.83;17.57;;;7.60;99.90;;;;;;5057069;28;20425;-55
2024/02/08 02:16:33;;;;;;;21.23;18.13;;;7.60;99.90;;;;;;5056354;28;20461;-55
2024/02/08 02:19:00;;;;;;;19.10;16.13;;;7.60;99.90;;;;;;5057011;28;20441;-54
2024/02/08 02:21:28;;;;;;;24.37;18.80;;;7.60;99.90;;;;;;5056887;28;20450;-54
2024/02/08 02:23:55;;;;;;;29.30;21.73;;;7.60;99.90;;;;;;5056513;28;21038;-55
2024/02/08 02:26:23;;;;;;;25.60;18.97;;;7.60;99.90;;;;;;5056753;28;20835;-55
2024/02/08 02:28:50;;;;;;;22.70;19.80;;;7.60;99.90;;;;;;5056443;28;20935;-55
2024/02/08 02:31:19;;;;;;;27.00;19.37;;;7.60;99.90;;;;;;5056349;28;20931;-54
2024/02/08 02:33:48;;;;;;;31.00;19.33;;;7.60;99.90;;;;;;5056499;28;20458;-55
2024/02/08 02:36:15;;;;;;;23.60;18.03;;;7.60;99.90;;;;;;5056594;28;20494;-55
2024/02/08 02:38:45;;;;;;;25.30;19.43;;;7.60;99.90;;;;;;5056721;28;20525;-54
2024/02/08 02:41:12;;;;;;;25.63;20.43;;;7.60;99.90;;;;;;5056579;28;20456;-55
2024/02/08 02:43:40;;;;;;;30.30;21.00;;;7.60;99.90;;;;;;5056567;28;20846;-54
2024/02/08 02:46:07;;;;;;;28.93;19.63;;;7.60;99.90;;;;;;5056010;28;20534;-54
2024/02/08 02:48:40;;;;;;;27.13;19.63;;;7.60;99.90;;;;;;5056277;28;20522;-54
2024/02/08 02:51:11;;;;;;;28.17;20.30;;;7.60;99.90;;;;;;5056331;28;20438;-55
2024/02/08 02:53:39;;;;;;;34.40;22.10;;;7.60;99.90;;;;;;5056221;28;20523;-55
2024/02/08 02:56:08;;;;;;;24.80;19.93;;;7.60;99.90;;;;;;5056358;28;20497;-55
2024/02/08 02:58:35;;;;;;;29.13;22.67;;;7.60;99.90;;;;;;5056265;28;20446;-55
2024/02/08 03:01:04;;;;;;;31.20;21.77;;;7.60;99.90;;;;;;5056020;28;20959;-55
2024/02/08 03:03:37;;;;;;;29.03;21.23;;;7.60;99.90;;;;;;5056526;28;20443;-55
2024/02/08 03:06:13;;;;;;;38.63;21.67;;;7.60;99.90;;;;;;5056294;28;20611;-54
2024/02/08 03:08:42;;;;;;;27.47;20.43;;;7.60;99.90;;;;;;5056193;28;20435;-54
2024/02/08 03:11:11;;;;;;;30.67;20.00;;;7.60;99.90;;;;;;5056666;28;20807;-55
2024/02/08 03:13:39;;;;;;;31.33;23.30;;;7.60;99.90;;;;;;5055618;28;20437;-54
2024/02/08 03:16:09;;;;;;;26.20;19.53;;;7.60;99.90;;;;;;5055772;28;20461;-55
2024/02/08 03:18:43;;;;;;;28.27;21.73;;;7.60;99.90;;;;;;5054574;28;20438;-55
2024/02/08 03:21:10;;;;;;;29.47;22.53;;;7.60;99.90;;;;;;5055945;28;20423;-55
2024/02/08 03:23:38;;;;;;;32.37;21.73;;;7.60;99.90;;;;;;5055840;28;20509;-55
2024/02/08 03:26:07;;;;;;;32.30;22.73;;;7.60;99.90;;;;;;5055287;28;20473;-55
2024/02/08 03:28:35;;;;;;;31.83;22.57;;;7.50;99.90;;;;;;5055202;28;21007;-55
2024/02/08 03:31:02;;;;;;;28.07;21.90;;;7.50;99.90;;;;;;5056894;28;20509;-55
2024/02/08 03:33:29;;;;;;;37.40;25.10;;;7.50;99.90;;;;;;5057806;28;20442;-55
2024/02/08 03:35:56;;;;;;;28.87;21.83;;;7.50;99.90;;;;;;5057620;28;20462;-55
2024/02/08 03:38:24;;;;;;;33.90;25.40;;;7.50;99.90;;;;;;5057026;28;20551;-55
2024/02/08 03:40:51;;;;;;;31.67;22.60;;;7.50;99.90;;;;;;5055897;28;20442;-54
2024/02/08 03:43:17;;;;;;;34.33;22.63;;;7.50;99.90;;;;;;5056292;28;20445;-55
2024/02/08 03:45:46;;;;;;;26.73;20.30;;;7.50;99.90;;;;;;5055413;28;20450;-54
2024/02/08 03:48:14;;;;;;;32.53;20.37;;;7.50;99.90;;;;;;5055600;28;20492;-55
2024/02/08 03:50:41;;;;;;;32.10;20.60;;;7.50;99.90;;;;;;5055135;28;20541;-54
2024/02/08 03:53:12;;;;;;;26.37;17.43;;;7.60;99.90;;;;;;5055190;28;20979;-54
2024/02/08 03:55:43;;;;;;;27.57;19.40;;;7.60;99.90;;;;;;5055413;28;20441;-54
2024/02/08 03:58:13;;;;;;;32.00;20.47;;;7.60;99.90;;;;;;5055817;28;20426;-54
2024/02/08 04:00:42;;;;;;;28.47;20.30;;;7.60;99.90;;;;;;5055211;28;20434;-55
2024/02/08 04:03:14;;;;;;;28.90;20.23;;;7.60;99.90;;;;;;5055451;28;20532;-55
2024/02/08 04:05:58;;;;;;;28.00;20.70;;;7.60;99.90;;;;;;5055485;28;20534;-55
2024/02/08 04:09:05;;;;;;;27.30;18.80;;;7.60;99.90;;;;;;5055789;28;20474;-55
2024/02/08 04:55:10;;;;;;;24.57;14.83;;;7.50;99.90;;;;;;5053552;28;20425;-55
2024/02/08 04:57:37;;;;;;;22.90;15.57;;;7.50;99.90;;;;;;5053325;28;20470;-55
2024/02/08 05:00:05;;;;;;;21.43;15.53;;;7.50;99.90;;;;;;5053677;28;20442;-54
2024/02/08 05:02:32;;;;;;;24.93;17.83;;;7.50;99.90;;;;;;5053562;28;20438;-54
2024/02/08 05:04:59;;;;;;;24.67;15.63;;;7.50;99.90;;;;;;5053777;28;20438;-55
2024/02/08 05:07:28;;;;;;;27.37;17.57;;;7.50;99.90;;;;;;5053476;28;20520;-55
2024/02/08 05:09:54;;;;;;;28.53;17.50;;;7.50;99.90;;;;;;5052997;28;20943;-55
2024/02/08 05:12:21;;;;;;;24.10;16.30;;;7.50;99.90;;;;;;5053672;28;20480;-55
2024/02/08 05:14:48;;;;;;;22.67;15.43;;;7.50;99.90;;;;;;5053357;28;20948;-55
2024/02/08 05:17:15;;;;;;;22.77;15.90;;;7.50;99.90;;;;;;5053250;28;21036;-55
2024/02/08 05:19:43;;;;;;;24.37;15.70;;;7.50;99.90;;;;;;5053532;28;20536;-55
2024/02/08 05:22:11;;;;;;;24.90;16.20;;;7.50;99.90;;;;;;5053542;28;20450;-55
2024/02/08 05:24:39;;;;;;;29.03;15.70;;;7.50;99.90;;;;;;5053527;28;20556;-55
2024/02/08 05:27:06;;;;;;;26.10;16.93;;;7.50;99.90;;;;;;5053482;28;20853;-55
2024/02/08 05:29:33;;;;;;;24.93;17.53;;;7.50;99.90;;;;;;5052992;28;20999;-55
2024/02/08 05:32:01;;;;;;;24.87;16.00;;;7.50;99.90;;;;;;5053572;28;20525;-55
2024/02/08 05:34:28;;;;;;;24.67;16.43;;;7.50;99.90;;;;;;5053377;28;20477;-55
2024/02/08 05:36:55;;;;;;;28.23;16.50;;;7.50;99.90;;;;;;5053485;28;20460;-55
2024/02/08 05:39:24;;;;;;;29.53;17.13;;;7.50;99.90;;;;;;5053236;28;20446;-55
2024/02/08 05:41:53;;;;;;;27.63;15.17;;;7.50;99.90;;;;;;5055632;28;20460;-55
2024/02/08 05:44:21;;;;;;;29.40;17.07;;;7.50;99.90;;;;;;5057609;28;20457;-55
2024/02/08 05:46:48;;;;;;;30.80;15.70;;;7.50;99.90;;;;;;5057527;28;20488;-55
2024/02/08 05:49:15;;;;;;;24.43;15.80;;;7.50;99.90;;;;;;5057291;28;20445;-55
2024/02/08 05:51:46;;;;;;;24.17;16.67;;;7.50;99.90;;;;;;5057253;28;20818;-55
2024/02/08 05:54:16;;;;;;;36.60;19.37;;;7.50;99.90;;;;;;5057214;28;20475;-55
2024/02/08 05:56:43;;;;;;;30.77;17.17;;;7.60;99.90;;;;;;5057006;28;20465;-54
2024/02/08 05:59:15;;;;;;;23.67;16.83;;;7.50;99.90;;;;;;5056840;28;20499;-55
2024/02/08 06:01:47;;;;;;;26.40;17.50;;;7.50;99.90;;;;;;5057176;28;20808;-55
2024/02/08 06:04:14;;;;;;;24.90;15.57;;;7.50;99.90;;;;;;5057097;28;20433;-55
2024/02/08 06:06:52;;;;;;;31.23;18.37;;;7.60;99.90;;;;;;5056741;28;20453;-54
2024/02/08 06:12:08;;;;;;;26.57;16.70;;;7.50;99.90;;;;;;5056733;28;20421;-54
2024/02/08 06:14:38;;;;;;;25.27;17.07;;;7.50;99.90;;;;;;5056812;28;20463;-54
2024/02/08 06:17:07;;;;;;;28.23;17.77;;;7.50;99.90;;;;;;5056793;28;20457;-55
2024/02/08 06:19:37;;;;;;;25.47;15.93;;;7.50;99.90;;;;;;5056686;28;20535;-55
2024/02/08 06:22:16;;;;;;;32.17;16.80;;;7.40;99.90;;;;;;5056617;28;20492;-55
2024/02/08 06:24:44;;;;;;;27.80;17.03;;;7.40;99.90;;;;;;5056603;28;20436;-54
2024/02/08 06:27:14;;;;;;;30.83;18.00;;;7.30;99.90;;;;;;5056266;28;20535;-54
2024/02/08 06:29:46;;;;;;;29.53;17.70;;;7.30;99.90;;;;;;5056215;28;20931;-54
2024/02/08 06:32:33;;;;;;;31.40;17.20;;;7.30;99.90;;;;;;5056489;28;20438;-54
2024/02/08 06:35:06;;;;;;;30.33;18.50;;;7.40;99.90;;;;;;5056502;28;20520;-55
2024/02/08 06:37:42;;;;;;;26.60;17.20;;;7.40;99.90;;;;;;5056361;28;20465;-54
2024/02/08 06:40:17;;;;;;;27.80;17.17;;;7.30;99.90;;;;;;5056273;28;20433;-54
2024/02/08 06:43:26;;;;;;;31.00;18.57;;;7.30;99.90;;;;;;5055849;28;20430;-54
2024/02/08 06:46:09;;;;;;;26.53;17.47;;;7.30;99.90;;;;;;5055757;28;20495;-54
2024/02/08 06:48:48;;;;;;;29.17;16.90;;;7.40;99.90;;;;;;5058502;28;20469;-54
2024/02/08 07:38:07;;;;;;;27.50;18.80;;;7.50;99.90;;;;;;5055475;28;20410;-57
2024/02/08 07:40:35;;;;;;;27.50;15.90;;;7.50;99.90;;;;;;5055307;28;20473;-57
2024/02/08 07:43:19;;;;;;;26.70;16.90;;;7.50;99.90;;;;;;5055346;28;20446;-56
2024/02/08 07:45:47;;;;;;;29.40;18.17;;;7.40;99.90;;;;;;5054970;28;20512;-56
2024/02/08 07:48:37;;;;;;;26.97;16.40;;;7.40;99.90;;;;;;5054921;28;20481;-57
2024/02/08 07:51:04;;;;;;;25.00;16.50;;;7.40;99.90;;;;;;5054976;28;20449;-56
2024/02/08 07:53:35;;;;;;;33.63;15.10;;;7.40;99.90;;;;;;5054519;28;20496;-56
2024/02/08 07:56:29;;;;;;;25.07;16.20;;;7.50;99.90;;;;;;5054727;28;20469;-56
2024/02/08 07:59:03;;;;;;;27.50;16.27;;;7.50;99.90;;;;;;5054856;28;20448;-56
2024/02/08 08:01:32;;;;;;;27.70;18.43;;;7.50;99.90;;;;;;5055222;28;20429;-56
2024/02/08 08:04:00;;;;;;;27.93;16.17;;;7.50;99.90;;;;;;5054170;28;20468;-56
2024/02/08 08:06:34;;;;;;;27.43;16.70;;;7.50;99.90;;;;;;5054346;28;21011;-56
2024/02/08 08:09:18;;;;;;;22.50;14.30;;;7.60;99.90;;;;;;5054818;28;20465;-56
2024/02/08 08:11:46;;;;;;;27.80;16.80;;;7.40;99.90;;;;;;5054609;28;20429;-56
2024/02/08 08:14:55;;;;;;;30.10;18.67;;;7.30;99.90;;;;;;5054384;28;20452;-55
2024/02/08 08:17:30;;;;;;;27.73;16.87;;;7.30;99.90;;;;;;5053962;28;20461;-57
2024/02/08 08:20:04;;;;;;;25.77;16.37;;;7.30;99.90;;;;;;5054465;28;20445;-56
2024/02/08 08:25:29;;;;;;;32.13;18.33;;;7.30;99.90;;;;;;5054254;28;20409;-56
2024/02/08 08:28:10;;;;;;;25.50;16.00;;;7.40;99.90;;;;;;5054413;28;20485;-56
2024/02/08 08:30:39;;;;;;;24.87;16.00;;;7.40;99.90;;;;;;5054326;28;20483;-56
2024/02/08 08:33:08;;;;;;;25.50;16.30;;;7.40;99.90;;;;;;5054230;28;20453;-55
2024/02/08 08:35:46;;;;;;;28.20;15.87;;;7.40;99.90;;;;;;5054252;28;20515;-55
2024/02/08 08:38:27;;;;;;;26.87;16.57;;;7.40;99.90;;;;;;5054144;28;20423;-55
2024/02/08 08:41:06;;;;;;;26.23;17.70;;;7.50;99.90;;;;;;5054189;28;20495;-55
2024/02/08 08:43:36;;;;;;;27.10;16.53;;;7.60;99.90;;;;;;5053843;28;20908;-55
2024/02/08 08:46:09;;;;;;;24.13;15.70;;;7.70;99.90;;;;;;5053763;28;20514;-55
2024/02/08 08:48:36;;;;;;;20.87;15.67;;;7.70;99.90;;;;;;5054069;28;20554;-55
2024/02/08 08:51:11;;;;;;;26.27;16.83;;;7.70;99.90;;;;;;5053693;28;20454;-55
2024/02/08 08:53:44;;;;;;;21.13;15.10;;;7.80;99.90;;;;;;5053861;28;20453;-55
2024/02/08 08:56:11;;;;;;;23.33;16.23;;;7.80;99.90;;;;;;5053912;28;20469;-55
2024/02/08 08:58:39;;;;;;;23.33;16.20;;;7.90;99.90;;;;;;5053831;28;20445;-55
2024/02/08 09:01:15;;;;;;;28.93;15.87;;;7.90;99.90;;;;;;5054498;28;20529;-55
2024/02/08 09:03:43;;;;;;;20.83;14.50;;;8.00;99.90;;;;;;5053623;28;20460;-55
2024/02/08 09:06:12;;;;;;;22.00;14.70;;;8.00;99.90;;;;;;5053621;28;20535;-55
2024/02/08 09:08:44;;;;;;;28.20;16.00;;;8.00;99.90;;;;;;5053469;28;20484;-55
2024/02/08 09:11:12;;;;;;;22.40;15.67;;;8.10;99.90;;;;;;5053135;28;20935;-55
2024/02/08 09:13:42;;;;;;;22.60;15.70;;;8.10;99.90;;;;;;5053602;28;20499;-55
2024/02/08 09:19:05;;;;;;;26.80;17.53;;;8.10;99.90;;;;;;5053570;28;20400;-55
2024/02/08 09:21:33;;;;;;;25.23;17.10;;;8.10;99.90;;;;;;5053669;28;20425;-55
2024/02/08 09:24:03;;;;;;;23.20;16.67;;;8.20;99.90;;;;;;5053215;28;20939;-57
2024/02/08 09:26:48;;;;;;;22.17;14.10;;;8.30;99.90;;;;;;5053447;28;20473;-56
2024/02/08 09:29:15;;;;;;;20.27;13.90;;;8.30;99.90;;;;;;5053597;28;20511;-56
2024/02/08 09:31:46;;;;;;;16.80;12.20;;;8.30;99.90;;;;;;5053235;28;20445;-56
2024/02/08 09:34:16;;;;;;;16.13;12.57;;;8.30;99.90;;;;;;5053509;28;20434;-56
2024/02/08 09:36:44;;;;;;;16.50;11.77;;;8.40;99.90;;;;;;5053421;28;20466;-56
2024/02/08 09:39:16;;;;;;;14.13;10.90;;;8.40;99.90;;;;;;5053086;28;20950;-56
2024/02/08 09:41:47;;;;;;;14.67;10.50;;;8.40;99.90;;;;;;5053328;28;20430;-56
2024/02/08 09:44:15;;;;;;;14.30;9.97;;;8.40;99.90;;;;;;5053306;28;20480;-56
2024/02/08 09:46:50;;;;;;;13.07;10.50;;;8.40;99.90;;;;;;5053259;28;20491;-56
2024/02/08 09:49:18;;;;;;;17.03;11.67;;;8.30;99.90;;;;;;5053859;28;20457;-56
2024/02/08 09:51:52;;;;;;;17.80;11.97;;;8.30;99.90;;;;;;5052871;28;20480;-56
2024/02/08 09:54:27;;;;;;;13.77;10.63;;;8.30;99.90;;;;;;5052948;28;20417;-56
2024/02/08 09:57:01;;;;;;;13.83;11.10;;;8.30;99.90;;;;;;5056735;28;20461;-56
2024/02/08 09:59:59;;;;;;;14.10;11.40;;;8.30;99.90;;;;;;5055658;28;20891;-56
2024/02/08 10:02:32;;;;;;;15.10;10.97;;;8.30;99.90;;;;;;5054551;28;20459;-56
2024/02/08 10:05:19;;;;;;;13.83;10.60;;;8.30;99.90;;;;;;5053597;28;20912;-56
2024/02/08 10:08:02;;;;;;;13.20;10.10;;;8.30;99.90;;;;;;5053107;28;20995;-56
2024/02/08 10:10:33;;;;;;;12.20;9.07;;;8.20;99.90;;;;;;5053336;28;20514;-56
2024/02/08 10:13:05;;;;;;;11.27;8.60;;;8.10;99.90;;;;;;5053285;28;20426;-56
2024/02/08 10:15:44;;;;;;;13.93;8.87;;;8.00;99.90;;;;;;5053422;28;20520;-56
2024/02/08 10:18:10;;;;;;;10.63;7.83;;;8.00;99.90;;;;;;5053306;28;20429;-56
2024/02/08 10:20:46;;;;;;;12.40;8.00;;;8.00;99.90;;;;;;5053474;28;20524;-56
2024/02/08 10:23:34;;;;;;;11.80;8.80;;;8.10;99.90;;;;;;5053443;28;20429;-56
2024/02/08 10:28:43;;;;;;;10.97;8.77;;;8.20;99.90;;;;;;5054599;28;20469;-56
2024/02/08 10:31:18;;;;;;;16.80;7.73;;;8.30;99.90;;;;;;5056722;28;20450;-56
2024/02/08 10:33:48;;;;;;;8.43;7.00;;;8.30;99.90;;;;;;5056286;28;20433;-56
2024/02/08 10:36:18;;;;;;;10.07;8.40;;;8.30;99.90;;;;;;5056721;28;20461;-56
2024/02/08 10:38:55;;;;;;;9.17;8.17;;;8.30;99.90;;;;;;5056517;28;20970;-56
2024/02/08 10:41:27;;;;;;;9.50;8.50;;;8.30;99.90;;;;;;5056430;28;20803;-56
2024/02/08 10:43:57;;;;;;;8.60;7.57;;;8.30;99.90;;;;;;5056482;28;20855;-56
2024/02/08 10:46:31;;;;;;;7.67;6.47;;;8.20;99.90;;;;;;5056020;28;20473;-56
2024/02/08 10:49:00;;;;;;;7.87;6.17;;;8.20;99.90;;;;;;5056360;28;20468;-56
2024/02/08 10:51:29;;;;;;;7.63;6.67;;;8.20;99.90;;;;;;5056766;28;20528;-56
2024/02/08 10:54:05;;;;;;;6.47;5.67;;;8.10;99.90;;;;;;5055754;28;20834;-56
2024/02/08 10:56:44;;;;;;;6.90;6.10;;;8.00;99.90;;;;;;5056312;28;20461;-56
2024/02/08 10:59:14;;;;;;;8.13;6.40;;;8.00;99.90;;;;;;5056398;28;20428;-57
2024/02/08 11:04:28;;;;;;;6.57;5.60;;;8.10;99.90;;;;;;5055637;28;20426;-56
2024/02/08 11:07:06;;;;;;;6.07;5.57;;;8.00;99.90;;;;;;5056468;28;20599;-56
2024/02/08 11:09:34;;;;;;;6.57;5.63;;;8.00;99.90;;;;;;5056038;28;20829;-56
2024/02/08 11:12:07;;;;;;;5.70;5.00;;;8.00;99.90;;;;;;5056081;28;20446;-56
2024/02/08 11:14:40;;;;;;;5.77;5.20;;;8.00;99.90;;;;;;5055837;28;20444;-56
2024/02/08 11:17:20;;;;;;;8.50;6.37;;;7.90;99.90;;;;;;5056229;28;20556;-56
2024/02/08 11:19:49;;;;;;;6.97;6.27;;;7.90;99.90;;;;;;5055925;28;20426;-56
2024/02/08 11:22:34;;;;;;;7.20;6.07;;;7.90;99.90;;;;;;5056529;28;20453;-56
2024/02/08 11:25:18;;;;;;;6.37;5.40;;;8.00;99.90;;;;;;5056282;28;20492;-56
2024/02/08 11:27:48;;;;;;;7.17;6.50;;;8.10;99.90;;;;;;5055943;28;20466;-56
2024/02/08 11:30:19;;;;;;;6.40;5.47;;;8.10;99.90;;;;;;5055547;28;20540;-56
2024/02/08 11:33:01;;;;;;;6.17;5.37;;;8.10;99.90;;;;;;5055512;28;20433;-57
2024/02/08 11:35:31;;;;;;;7.60;5.50;;;8.10;99.90;;;;;;5056084;28;20788;-56
2024/02/08 11:38:10;;;;;;;7.53;6.30;;;8.10;99.90;;;;;;5055961;28;20465;-56
2024/02/08 11:40:37;;;;;;;6.20;5.57;;;8.20;99.90;;;;;;5055909;28;20428;-57
2024/02/08 11:43:06;;;;;;;9.73;7.00;;;8.10;99.90;;;;;;5057074;28;20540;-57
2024/02/08 11:45:35;;;;;;;7.13;6.40;;;8.20;99.90;;;;;;5056915;28;20441;-58
2024/02/08 11:48:04;;;;;;;7.57;5.70;;;8.20;99.90;;;;;;5056161;28;20503;-56
2024/02/08 11:50:36;;;;;;;6.80;5.87;;;8.30;99.90;;;;;;5055759;28;20449;-56
2024/02/08 11:53:04;;;;;;;9.93;7.47;;;8.30;99.90;;;;;;5056265;28;20454;-57
2024/02/08 11:55:33;;;;;;;6.87;6.17;;;8.30;99.90;;;;;;5056403;28;20448;-57
2024/02/08 11:58:06;;;;;;;9.23;5.70;;;8.40;99.90;;;;;;5056870;28;20471;-57
2024/02/08 12:00:45;;;;;;;10.70;6.20;;;8.40;99.90;;;;;;5057802;28;20422;-57
2024/02/08 12:03:17;;;;;;;7.80;4.70;;;8.40;99.90;;;;;;5057045;28;20426;-57
2024/02/08 12:05:52;;;;;;;4.73;4.30;;;8.50;99.90;;;;;;5056110;28;20436;-57
2024/02/08 12:08:21;;;;;;;5.80;4.27;;;8.50;99.90;;;;;;5054903;28;20990;-57
2024/02/08 12:10:49;;;;;;;6.13;4.40;;;8.60;99.90;;;;;;5054654;28;20457;-58
2024/02/08 12:13:24;;;;;;;5.20;4.00;;;8.60;99.90;;;;;;5054949;28;20536;-57
2024/02/08 12:15:55;;;;;;;4.80;4.10;;;8.60;99.90;;;;;;5054552;28;20433;-57
2024/02/08 12:18:23;;;;;;;3.67;3.10;;;8.60;99.90;;;;;;5054713;28;20769;-57
2024/02/08 12:20:55;;;;;;;4.83;3.97;;;8.70;99.90;;;;;;5054342;28;20448;-57
2024/02/08 12:23:24;;;;;;;4.60;3.90;;;8.70;99.90;;;;;;5054477;28;20426;-57
2024/02/08 12:25:54;;;;;;;5.03;4.33;;;8.70;99.90;;;;;;5054216;28;20453;-56
2024/02/08 12:28:24;;;;;;;4.70;4.10;;;8.70;99.90;;;;;;5054192;28;20441;-57
2024/02/08 12:30:59;;;;;;;3.70;3.40;;;8.70;99.90;;;;;;5054544;28;20457;-56
2024/02/08 12:33:26;;;;;;;5.33;3.60;;;8.70;99.90;;;;;;5054279;28;20456;-57
2024/02/08 12:35:54;;;;;;;4.10;3.63;;;8.70;99.90;;;;;;5054431;28;20452;-57
2024/02/08 12:38:22;;;;;;;4.33;3.60;;;8.70;99.90;;;;;;5053858;28;20535;-56
2024/02/08 12:40:49;;;;;;;4.50;3.70;;;8.70;99.90;;;;;;5054004;28;20453;-56
2024/02/08 12:43:19;;;;;;;3.10;2.90;;;8.70;99.90;;;;;;5054389;28;20442;-56
2024/02/08 12:45:53;;;;;;;3.57;3.27;;;8.70;99.90;;;;;;5053732;28;20449;-56
2024/02/08 12:48:20;;;;;;;2.83;2.57;;;8.70;99.90;;;;;;5053624;28;20525;-56
2024/02/08 12:50:52;;;;;;;3.87;3.47;;;8.70;99.90;;;;;;5054308;28;20449;-56
2024/02/08 12:53:21;;;;;;;2.93;2.73;;;8.70;99.90;;;;;;5053714;28;20511;-56
2024/02/08 12:55:48;;;;;;;3.80;3.50;;;8.70;99.90;;;;;;5053774;28;20454;-56
2024/02/08 12:58:18;;;;;;;3.93;3.63;;;8.80;99.90;;;;;;5053958;28;20456;-56
2024/02/08 13:01:04;;;;;;;3.97;3.57;;;8.70;99.90;;;;;;5053413;28;20536;-56
2024/02/08 13:03:32;;;;;;;4.47;3.97;;;8.70;99.90;;;;;;5053576;28;20425;-56
2024/02/08 13:05:59;;;;;;;4.67;4.23;;;8.70;99.90;;;;;;5053594;28;20487;-57
2024/02/08 13:08:26;;;;;;;4.10;3.80;;;8.80;99.90;;;;;;5053236;28;20446;-57
2024/02/08 13:10:55;;;;;;;3.80;3.40;;;8.80;99.90;;;;;;5056084;28;20632;-56
2024/02/08 13:13:24;;;;;;;3.87;3.57;;;8.80;99.90;;;;;;5056221;28;20446;-57
2024/02/08 13:15:58;;;;;;;7.60;4.30;;;8.70;99.90;;;;;;5055341;28;20857;-57
2024/02/08 13:18:29;;;;;;;4.67;4.03;;;8.70;99.90;;;;;;5055100;28;20429;-57
2024/02/08 13:20:57;;;;;;;4.50;4.07;;;8.70;99.90;;;;;;5054024;28;20430;-57
2024/02/08 13:23:24;;;;;;;4.80;4.30;;;8.70;99.90;;;;;;5054237;28;20454;-57
2024/02/08 13:25:54;;;;;;;5.13;4.73;;;8.70;99.90;;;;;;5053527;28;20446;-58
2024/02/08 13:28:23;;;;;;;5.50;5.00;;;8.70;99.90;;;;;;5053805;28;20438;-57
2024/02/08 13:30:51;;;;;;;4.97;4.57;;;8.70;99.90;;;;;;5053826;28;20426;-56
2024/02/08 13:33:18;;;;;;;5.37;4.63;;;8.80;99.90;;;;;;5053392;28;20441;-58
2024/02/08 13:35:46;;;;;;;5.77;5.17;;;8.80;99.90;;;;;;5053743;28;20533;-57
2024/02/08 13:38:14;;;;;;;5.50;4.63;;;8.80;99.90;;;;;;5053589;28;20521;-57
2024/02/08 13:40:44;;;;;;;7.47;5.50;;;8.80;99.90;;;;;;5053118;28;20928;-57
2024/02/08 13:43:12;;;;;;;5.30;4.90;;;8.80;99.90;;;;;;5053201;28;20491;-57
2024/02/08 13:45:40;;;;;;;7.57;5.67;;;8.80;99.90;;;;;;5053310;28;20446;-57
2024/02/08 13:48:12;;;;;;;5.53;5.03;;;8.80;99.90;;;;;;5053331;28;20456;-57
2024/02/08 13:50:43;;;;;;;5.70;5.20;;;8.90;99.90;;;;;;5053165;28;20474;-56
2024/02/08 13:53:14;;;;;;;6.10;5.60;;;8.90;99.90;;;;;;5052838;28;20840;-57
2024/02/08 13:55:45;;;;;;;5.20;4.80;;;9.00;99.90;;;;;;5053125;28;20433;-57
2024/02/08 13:58:13;;;;;;;6.80;6.20;;;9.00;99.90;;;;;;5053265;28;20430;-56
2024/02/08 14:00:41;;;;;;;6.40;5.80;;;8.90;99.90;;;;;;5053286;28;20445;-57
2024/02/08 14:03:09;;;;;;;7.67;6.90;;;9.00;99.90;;;;;;5055977;28;20445;-57
2024/02/08 14:05:39;;;;;;;6.60;6.00;;;9.00;99.90;;;;;;5057158;28;20544;-57
2024/02/08 14:08:09;;;;;;;6.10;5.50;;;9.00;99.90;;;;;;5057416;28;20469;-57
2024/02/08 14:10:38;;;;;;;5.90;5.37;;;9.00;99.90;;;;;;5057248;28;20476;-57
2024/02/08 14:13:09;;;;;;;9.30;6.00;;;9.00;99.90;;;;;;5056869;28;20445;-57
2024/02/08 14:15:45;;;;;;;6.83;6.23;;;9.10;99.90;;;;;;5056997;28;20520;-57
2024/02/08 14:18:22;;;;;;;6.73;6.10;;;9.10;99.90;;;;;;5056970;28;20503;-57
2024/02/08 14:20:55;;;;;;;6.40;5.80;;;9.00;99.90;;;;;;5056782;28;20793;-57
2024/02/08 14:23:31;;;;;;;6.20;5.60;;;9.10;99.90;;;;;;5056767;28;20471;-58
2024/02/08 14:26:09;;;;;;;10.10;6.40;;;9.10;99.90;;;;;;5056774;28;20552;-57
2024/02/08 14:28:42;;;;;;;6.53;5.93;;;9.10;99.90;;;;;;5056615;28;20499;-57
2024/02/08 14:31:09;;;;;;;6.37;5.70;;;9.10;99.90;;;;;;5057050;28;20469;-57
2024/02/08 14:33:37;;;;;;;5.80;5.30;;;9.10;99.90;;;;;;5056121;28;20441;-57
2024/02/08 14:36:07;;;;;;;5.53;5.13;;;9.10;99.90;;;;;;5056327;28;20540;-57
2024/02/08 14:38:34;;;;;;;6.10;5.60;;;9.10;99.90;;;;;;5056460;28;20540;-57
2024/02/08 14:41:05;;;;;;;5.77;5.27;;;9.00;99.90;;;;;;5056304;28;20532;-57
2024/02/08 14:43:32;;;;;;;6.30;5.80;;;9.00;99.90;;;;;;5056151;28;20537;-57
2024/02/08 14:46:00;;;;;;;7.17;6.57;;;9.00;99.90;;;;;;5056300;28;20501;-57